createdAt,value
2022-12-08T00:01:35.313Z,98122.97
2022-12-08T00:04:04.637Z,98122.91
2022-12-08T00:06:59.706Z,98115.25
2022-12-08T00:09:40.318Z,98118.63
2022-12-08T00:12:15.231Z,98121.25
2022-12-08T00:14:46.879Z,98121.13
2022-12-08T00:17:17.464Z,98130.72
2022-12-08T00:19:45.845Z,98123.75
2022-12-08T00:22:14.753Z,98115.88
2022-12-08T00:24:45.761Z,98122.97
2022-12-08T00:27:22.026Z,98124.59
2022-12-08T00:29:49.185Z,98118.44
2022-12-08T00:32:16.442Z,98109.69
2022-12-08T00:34:43.906Z,98104.44
2022-12-08T00:37:11.246Z,98107.16
2022-12-08T00:39:38.748Z,98108.19
2022-12-08T00:42:14.960Z,98115.06
2022-12-08T00:44:45.562Z,98113.31
2022-12-08T00:47:14.430Z,98114.53
2022-12-08T00:49:42.004Z,98117.69
2022-12-08T00:52:09.373Z,98120.94
2022-12-08T00:54:36.548Z,98125.25
2022-12-08T00:57:04.103Z,98115.72
2022-12-08T00:59:31.205Z,98117.41
2022-12-08T01:01:58.433Z,98116.69
2022-12-08T01:04:26.051Z,98109.03
2022-12-08T01:06:53.282Z,98121.88
2022-12-08T01:09:20.855Z,98127.94
2022-12-08T01:11:49.062Z,98134.16
2022-12-08T01:14:16.672Z,98127.88
2022-12-08T01:16:44.002Z,98122.75
2022-12-08T01:19:13.909Z,98140.81
2022-12-08T01:21:42.143Z,98133.06
2022-12-08T01:24:19.163Z,98124.63
2022-12-08T01:26:48.004Z,98124.66
2022-12-08T01:29:15.623Z,98126.31
2022-12-08T01:31:43.058Z,98122.16
2022-12-08T01:34:11.446Z,98121.00
2022-12-08T01:36:39.318Z,98124.47
2022-12-08T01:39:14.829Z,98125.16
2022-12-08T01:41:47.672Z,98119.97
2022-12-08T01:44:15.116Z,98118.22
2022-12-08T01:46:50.637Z,98116.41
2022-12-08T01:49:22.874Z,98111.19
2022-12-08T01:52:26.964Z,98109.53
2022-12-08T01:55:03.205Z,98112.13
2022-12-08T01:57:45.710Z,98106.91
2022-12-08T02:00:19.842Z,98106.03
2022-12-08T02:03:09.701Z,98102.81
2022-12-08T02:05:40.832Z,98105.44
2022-12-08T02:08:12.580Z,98095.09
2022-12-08T02:10:43.775Z,98103.06
2022-12-08T02:13:17.765Z,98096.78
2022-12-08T02:16:01.292Z,98095.91
2022-12-08T02:19:22.078Z,98092.41
2022-12-08T02:22:04.371Z,98089.94
2022-12-08T02:24:39.474Z,98100.41
2022-12-08T02:27:50.915Z,98093.34
2022-12-08T02:30:42.048Z,98087.66
2022-12-08T02:34:16.324Z,98080.06
2022-12-08T02:37:06.689Z,98090.22
2022-12-08T02:39:58.600Z,98077.88
2022-12-08T02:42:44.449Z,98079.06
2022-12-08T02:45:29.787Z,98075.44
2022-12-08T02:48:00.241Z,98068.28
2022-12-08T02:50:29.631Z,98075.81
2022-12-08T02:52:57.706Z,98061.75
2022-12-08T02:55:48.928Z,98069.53
2022-12-08T02:58:31.957Z,98069.47
2022-12-08T03:01:49.666Z,98071.16
2022-12-08T03:04:39.675Z,98062.44
2022-12-08T03:07:27.276Z,98058.19
2022-12-08T03:10:03.554Z,98060.75
2022-12-08T03:12:49.764Z,98057.34
2022-12-08T03:15:22.628Z,98061.63
2022-12-08T03:17:57.868Z,98056.50
2022-12-08T03:20:30.042Z,98051.84
2022-12-08T03:23:03.044Z,98055.94
2022-12-08T03:25:37.962Z,98060.28
2022-12-08T03:28:06.219Z,98053.50
2022-12-08T03:30:41.203Z,98050.00
2022-12-08T03:33:40.730Z,98048.16
2022-12-08T03:36:12.565Z,98050.69
2022-12-08T03:38:44.961Z,98046.38
2022-12-08T03:41:19.264Z,98047.44
2022-12-08T03:43:54.156Z,98044.75
2022-12-08T03:48:56.799Z,98049.06
2022-12-08T03:51:24.881Z,98040.47
2022-12-08T03:53:52.293Z,98041.38
2022-12-08T03:56:31.638Z,98041.38
2022-12-08T03:58:59.441Z,98042.22
2022-12-08T04:01:27.459Z,98044.00
2022-12-08T04:03:54.933Z,98049.19
2022-12-08T04:06:23.007Z,98041.38
2022-12-08T04:08:52.102Z,98045.63
2022-12-08T04:11:19.877Z,98036.81
2022-12-08T04:13:47.872Z,98036.03
2022-12-08T04:16:25.314Z,98032.38
2022-12-08T04:18:52.845Z,98029.00
2022-12-08T04:21:20.658Z,98023.78
2022-12-08T04:23:48.392Z,98029.78
2022-12-08T04:26:15.818Z,98025.56
2022-12-08T04:28:43.090Z,98027.31
2022-12-08T04:31:10.588Z,98021.19
2022-12-08T04:33:38.057Z,98017.66
2022-12-08T04:36:06.571Z,98017.84
2022-12-08T04:38:34.650Z,98015.19
2022-12-08T04:41:02.114Z,98025.47
2022-12-08T04:43:29.354Z,98012.59
2022-12-08T04:45:56.436Z,98016.91
2022-12-08T04:48:24.046Z,98020.41
2022-12-08T04:50:51.649Z,98017.84
2022-12-08T04:53:19.812Z,98013.44
2022-12-08T04:55:48.844Z,98010.03
2022-12-08T04:58:20.075Z,98009.97
2022-12-08T05:00:49.791Z,97999.47
2022-12-08T05:03:21.387Z,98000.31
2022-12-08T05:05:59.158Z,97994.38
2022-12-08T05:08:26.983Z,97991.81
2022-12-08T05:10:54.210Z,97989.25
2022-12-08T05:13:21.673Z,97989.19
2022-12-08T05:15:49.143Z,97993.78
2022-12-08T05:18:16.644Z,97998.28
2022-12-08T05:20:44.126Z,97994.81
2022-12-08T05:23:11.592Z,97991.44
2022-12-08T05:25:39.217Z,97993.25
2022-12-08T05:28:39.491Z,97993.19
2022-12-08T05:30:54.777Z,97996.72
2022-12-08T05:33:23.089Z,97994.09
2022-12-08T05:35:51.136Z,97996.75
2022-12-08T05:38:21.508Z,97990.66
2022-12-08T05:40:48.791Z,97991.66
2022-12-08T05:43:16.309Z,97995.03
2022-12-08T05:45:43.595Z,98001.94
2022-12-08T05:48:13.985Z,97991.63
2022-12-08T05:50:50.032Z,97994.22
2022-12-08T05:53:24.111Z,97997.69
2022-12-08T05:55:51.603Z,97996.75
2022-12-08T05:58:22.121Z,97995.00
2022-12-08T06:00:51.343Z,97990.53
2022-12-08T06:03:20.321Z,97992.97
2022-12-08T06:05:49.534Z,97990.31
2022-12-08T06:08:20.735Z,97996.34
2022-12-08T06:10:48.464Z,98000.81
2022-12-08T06:13:15.815Z,97992.94
2022-12-08T06:15:45.624Z,97995.47
2022-12-08T06:18:12.771Z,97991.88
2022-12-08T06:20:39.562Z,97998.84
2022-12-08T06:23:06.707Z,97992.94
2022-12-08T06:25:33.580Z,98007.72
2022-12-08T06:28:07.538Z,98000.81
2022-12-08T06:30:35.871Z,97995.66
2022-12-08T06:33:06.486Z,97998.25
2022-12-08T06:35:34.202Z,98002.50
2022-12-08T06:38:03.905Z,98001.81
2022-12-08T06:40:30.761Z,97997.44
2022-12-08T06:42:57.877Z,97999.19
2022-12-08T06:45:25.280Z,97996.75
2022-12-08T06:47:52.618Z,98001.00
2022-12-08T06:50:20.038Z,98000.13
2022-12-08T06:52:59.511Z,98000.19
2022-12-08T06:58:20.346Z,98005.38
2022-12-08T07:00:47.421Z,98008.84
2022-12-08T07:03:15.067Z,98009.78
2022-12-08T07:05:42.327Z,98010.00
2022-12-08T07:08:10.052Z,98009.97
2022-12-08T07:10:37.530Z,98013.44
2022-12-08T07:13:05.173Z,98008.84
2022-12-08T07:15:32.227Z,98005.72
2022-12-08T07:18:00.484Z,98009.88
2022-12-08T07:20:28.127Z,98002.09
2022-12-08T07:22:55.378Z,98006.22
2022-12-08T07:25:22.716Z,98008.13
2022-12-08T07:27:51.656Z,98008.19
2022-12-08T07:30:19.407Z,98003.78
2022-12-08T07:32:47.282Z,98003.63
2022-12-08T07:35:14.403Z,98005.47
2022-12-08T07:37:41.645Z,98006.38
2022-12-08T07:40:10.176Z,98003.25
2022-12-08T07:42:37.474Z,98010.13
2022-12-08T07:45:04.791Z,98012.78
2022-12-08T07:47:31.981Z,98012.53
2022-12-08T07:49:58.877Z,98005.44
2022-12-08T07:52:26.062Z,98004.53
2022-12-08T07:54:52.986Z,98014.88
2022-12-08T07:57:20.257Z,98013.06
2022-12-08T07:59:47.698Z,98017.44
2022-12-08T08:02:26.934Z,98010.38
2022-12-08T08:04:57.836Z,98018.84
2022-12-08T08:07:25.180Z,98012.72
2022-12-08T08:09:52.051Z,98016.50
2022-12-08T08:12:34.437Z,98005.09
2022-12-08T08:15:03.924Z,98015.25
2022-12-08T08:17:33.087Z,98018.59
2022-12-08T08:20:03.219Z,98014.97
2022-12-08T08:22:33.230Z,98015.84
2022-12-08T08:25:00.150Z,98016.81
2022-12-08T08:27:27.371Z,98014.81
2022-12-08T08:29:54.759Z,98020.78
2022-12-08T08:32:22.313Z,98012.97
2022-12-08T08:34:52.333Z,98011.09
2022-12-08T08:37:19.747Z,98022.41
2022-12-08T08:39:46.581Z,98024.22
2022-12-08T08:42:13.892Z,98019.78
2022-12-08T08:44:40.780Z,98010.19
2022-12-08T08:47:07.936Z,98018.06
2022-12-08T08:49:34.929Z,98005.84
2022-12-08T08:52:03.636Z,98014.41
2022-12-08T08:54:30.901Z,98009.09
2022-12-08T08:57:00.429Z,98017.72
2022-12-08T08:59:28.729Z,98012.78
2022-12-08T09:01:56.857Z,98016.25
2022-12-08T09:04:24.450Z,98027.53
2022-12-08T09:06:54.335Z,98026.56
2022-12-08T09:09:25.437Z,98037.25
2022-12-08T09:11:53.723Z,98031.16
2022-12-08T09:14:21.224Z,98031.81
2022-12-08T09:16:49.344Z,98027.91
2022-12-08T09:19:16.897Z,98033.84
2022-12-08T09:21:44.518Z,98017.81
2022-12-08T09:24:15.793Z,98019.63
2022-12-08T09:26:47.152Z,98017.72
2022-12-08T09:29:20.082Z,98014.13
2022-12-08T09:31:47.405Z,98001.00
2022-12-08T09:34:15.973Z,98006.91
2022-12-08T09:36:43.093Z,98001.56
2022-12-08T09:39:09.941Z,97998.00
2022-12-08T09:42:01.945Z,97992.53
2022-12-08T09:44:57.266Z,97998.47
2022-12-08T09:47:36.026Z,97993.97
2022-12-08T09:50:22.723Z,97989.63
2022-12-08T09:53:17.891Z,97990.28
2022-12-08T09:56:04.678Z,97984.81
2022-12-08T09:58:55.159Z,97978.66
2022-12-08T10:01:29.227Z,97979.41
2022-12-08T10:03:57.212Z,97977.44
2022-12-08T10:07:08.100Z,97979.34
2022-12-08T10:10:05.840Z,97984.44
2022-12-08T10:13:11.814Z,97973.81
2022-12-08T10:15:53.857Z,97972.91
2022-12-08T10:18:28.969Z,97974.78
2022-12-08T10:21:14.292Z,97966.84
2022-12-08T10:23:46.407Z,97968.84
2022-12-08T10:26:19.092Z,97961.22
2022-12-08T10:28:46.478Z,97954.66
2022-12-08T10:31:25.330Z,97950.22
2022-12-08T10:34:24.583Z,97945.00
2022-12-08T10:37:00.881Z,97948.53
2022-12-08T10:39:34.813Z,97938.84
2022-12-08T10:42:09.373Z,97941.06
2022-12-08T10:45:11.853Z,97939.47
2022-12-08T10:47:56.207Z,97938.78
2022-12-08T10:50:52.511Z,97937.75
2022-12-08T10:53:34.292Z,97927.50
2022-12-08T10:56:16.659Z,97931.88
2022-12-08T10:58:48.816Z,97930.97
2022-12-08T11:01:38.631Z,97925.75
2022-12-08T11:04:36.598Z,97909.00
2022-12-08T11:07:09.423Z,97914.97
2022-12-08T11:09:49.746Z,97903.72
2022-12-08T11:12:20.952Z,97915.75
2022-12-08T11:14:56.593Z,97911.56
2022-12-08T11:17:27.030Z,97908.19
2022-12-08T11:20:04.309Z,97902.63
2022-12-08T11:22:43.904Z,97902.31
2022-12-08T11:25:21.370Z,97901.19
2022-12-08T11:28:02.308Z,97908.78
2022-12-08T11:30:50.600Z,97892.81
2022-12-08T11:33:27.038Z,97906.69
2022-12-08T11:36:11.458Z,97896.31
2022-12-08T11:38:47.865Z,97895.03
2022-12-08T11:41:20.637Z,97894.78
2022-12-08T11:44:17.844Z,97890.19
2022-12-08T11:47:07.368Z,97891.66
2022-12-08T11:49:42.044Z,97893.16
2022-12-08T11:52:18.207Z,97893.00
2022-12-08T11:55:17.080Z,97893.09
2022-12-08T11:57:46.672Z,97890.06
2022-12-08T12:00:17.380Z,97887.28
2022-12-08T12:03:00.346Z,97882.91
2022-12-08T12:06:38.341Z,97884.63
2022-12-08T12:10:18.588Z,97870.50
2022-12-08T12:13:37.324Z,97880.16
2022-12-08T12:16:16.863Z,97875.22
2022-12-08T12:19:08.946Z,97875.31
2022-12-08T12:21:50.014Z,97872.16
2022-12-08T12:24:28.319Z,97870.41
2022-12-08T12:27:03.338Z,97878.13
2022-12-08T12:29:37.555Z,97875.41
2022-12-08T12:32:09.178Z,97865.84
2022-12-08T12:34:55.567Z,97869.81
2022-12-08T12:37:43.202Z,97863.63
2022-12-08T12:40:26.543Z,97867.94
2022-12-08T12:42:56.915Z,97873.81
2022-12-08T12:45:34.558Z,97870.56
2022-12-08T12:48:02.235Z,97865.94
2022-12-08T12:50:32.399Z,97869.13
2022-12-08T12:53:27.285Z,97852.31
2022-12-08T12:56:03.866Z,97853.63
2022-12-08T12:58:31.142Z,97847.31
2022-12-08T13:01:10.331Z,97846.44
2022-12-08T13:03:46.162Z,97845.53
2022-12-08T13:06:21.724Z,97844.81
2022-12-08T13:08:56.428Z,97839.69
2022-12-08T13:11:25.101Z,97848.22
2022-12-08T13:14:03.687Z,97846.16
2022-12-08T13:16:39.657Z,97845.22
2022-12-08T13:19:16.207Z,97846.03
2022-12-08T13:21:43.453Z,97837.25
2022-12-08T13:24:10.705Z,97831.38
2022-12-08T13:27:08.776Z,97832.25
2022-12-08T13:29:40.186Z,97832.31
2022-12-08T13:32:09.844Z,97834.72
2022-12-08T13:34:57.938Z,97835.59
2022-12-08T13:37:54.580Z,97828.41
2022-12-08T13:40:30.312Z,97832.94
2022-12-08T13:43:25.108Z,97831.88
2022-12-08T13:46:57.611Z,97834.44
2022-12-08T13:50:30.722Z,97830.09
2022-12-08T13:57:33.529Z,97832.31
2022-12-08T14:00:07.472Z,97834.00
2022-12-08T14:02:46.988Z,97823.91
2022-12-08T14:05:40.585Z,97831.72
2022-12-08T14:08:50.967Z,97833.47
2022-12-08T14:11:35.857Z,97837.06
2022-12-08T14:14:27.328Z,97829.66
2022-12-08T14:17:11.146Z,97832.25
2022-12-08T14:19:38.703Z,97831.38
2022-12-08T14:22:08.629Z,97828.78
2022-12-08T14:24:36.172Z,97825.53
2022-12-08T14:27:14.307Z,97835.00
2022-12-08T14:29:43.085Z,97829.75
2022-12-08T14:32:22.960Z,97831.59
2022-12-08T14:35:01.736Z,97829.03
2022-12-08T14:37:35.001Z,97827.31
2022-12-08T14:40:22.893Z,97829.97
2022-12-08T14:43:06.353Z,97837.09
2022-12-08T14:45:40.766Z,97831.03
2022-12-08T14:48:27.582Z,97831.94
2022-12-08T14:51:16.780Z,97833.81
2022-12-08T14:53:55.081Z,97831.25
2022-12-08T14:56:51.485Z,97835.03
2022-12-08T14:59:36.675Z,97845.50
2022-12-08T15:02:15.921Z,97848.13
2022-12-08T15:04:53.806Z,97833.38
2022-12-08T15:07:27.264Z,97840.44
2022-12-08T15:10:20.959Z,97846.72
2022-12-08T15:13:22.994Z,97839.72
2022-12-08T15:15:58.426Z,97844.09
2022-12-08T15:18:40.799Z,97845.97
2022-12-08T15:21:13.296Z,97840.81
2022-12-08T15:23:49.130Z,97844.25
2022-12-08T15:26:26.756Z,97846.88
2022-12-08T15:28:55.512Z,97847.72
2022-12-08T15:31:23.023Z,97848.66
2022-12-08T15:33:50.150Z,97840.19
2022-12-08T15:36:17.012Z,97835.00
2022-12-08T15:38:44.468Z,97841.06
2022-12-08T15:41:14.965Z,97841.03
2022-12-08T15:43:43.448Z,97839.19
2022-12-08T15:46:12.725Z,97839.25
2022-12-08T15:48:41.303Z,97839.97
2022-12-08T15:51:12.208Z,97841.66
2022-12-08T15:53:40.057Z,97838.28
2022-12-08T15:58:58.072Z,97845.22
2022-12-08T16:01:29.437Z,97846.81
2022-12-08T16:07:20.341Z,97851.38
2022-12-08T16:09:41.698Z,97840.91
2022-12-08T16:13:40.530Z,97847.09
2022-12-08T16:18:24.165Z,97853.16
2022-12-08T16:23:43.641Z,97855.47
2022-12-08T16:27:01.167Z,97850.34
2022-12-08T16:29:07.851Z,97848.53
2022-12-08T16:31:35.583Z,97851.16
2022-12-08T16:34:02.706Z,97853.63
2022-12-08T16:36:29.992Z,97848.53
2022-12-08T16:38:57.149Z,97854.63
2022-12-08T16:41:46.269Z,97851.03
2022-12-08T16:44:13.956Z,97856.44
2022-12-08T16:46:42.523Z,97855.56
2022-12-08T16:49:10.589Z,97855.00
2022-12-08T16:51:38.258Z,97853.34
2022-12-08T16:54:05.724Z,97852.53
2022-12-08T16:56:33.871Z,97859.50
2022-12-08T16:59:03.584Z,97865.69
2022-12-08T17:01:30.874Z,97862.22
2022-12-08T17:06:45.910Z,97864.22
2022-12-08T17:09:13.723Z,97858.06
2022-12-08T17:11:43.676Z,97859.84
2022-12-08T17:14:15.094Z,97854.59
2022-12-08T17:16:47.607Z,97852.16
2022-12-08T17:19:16.207Z,97847.84
2022-12-08T17:21:44.870Z,97850.47
2022-12-08T17:24:15.882Z,97846.06
2022-12-08T17:26:46.024Z,97849.59
2022-12-08T17:29:13.126Z,97843.63
2022-12-08T17:31:40.634Z,97852.44
2022-12-08T17:34:11.338Z,97849.94
2022-12-08T17:36:39.592Z,97854.97
2022-12-08T17:39:12.128Z,97851.50
2022-12-08T17:41:45.007Z,97854.13
2022-12-08T17:44:20.978Z,97856.75
2022-12-08T17:46:52.513Z,97859.41
2022-12-08T17:49:26.566Z,97859.34
2022-12-08T17:52:02.124Z,97858.47
2022-12-08T17:54:34.209Z,97861.28
2022-12-08T17:57:01.340Z,97861.22
2022-12-08T17:59:29.466Z,97857.72
2022-12-08T18:01:58.852Z,97857.97
2022-12-08T18:04:29.548Z,97859.13
2022-12-08T18:07:01.614Z,97855.66
2022-12-08T18:09:31.516Z,97853.72
2022-12-08T18:11:58.739Z,97855.53
2022-12-08T18:14:26.316Z,97858.13
2022-12-08T18:16:53.600Z,97862.66
2022-12-08T18:19:20.658Z,97858.25
2022-12-08T18:21:48.083Z,97858.38
2022-12-08T18:24:23.852Z,97859.97
2022-12-08T18:26:52.948Z,97863.38
2022-12-08T18:29:22.897Z,97854.53
2022-12-08T18:31:51.338Z,97847.53
2022-12-08T18:34:21.566Z,97852.59
2022-12-08T18:36:49.260Z,97853.53
2022-12-08T18:39:36.319Z,97846.56
2022-12-08T18:42:23.158Z,97848.22
2022-12-08T18:45:03.097Z,97842.03
2022-12-08T18:47:33.841Z,97845.59
2022-12-08T18:50:11.456Z,97842.97
2022-12-08T18:52:39.598Z,97840.41
2022-12-08T18:55:07.992Z,97838.72
2022-12-08T18:57:41.632Z,97827.59
2022-12-08T19:00:15.488Z,97830.50
2022-12-08T19:02:43.616Z,97831.53
2022-12-08T19:05:13.660Z,97825.63
2022-12-08T19:07:42.777Z,97837.03
2022-12-08T19:10:11.445Z,97833.81
2022-12-08T19:12:38.526Z,97834.56
2022-12-08T19:15:07.386Z,97827.75
2022-12-08T19:17:34.866Z,97823.66
2022-12-08T19:20:02.064Z,97827.91
2022-12-08T19:22:29.257Z,97828.69
2022-12-08T19:24:56.265Z,97833.06
2022-12-08T19:27:23.434Z,97830.47
2022-12-08T19:29:50.696Z,97832.19
2022-12-08T19:32:17.884Z,97834.03
2022-12-08T19:34:44.870Z,97837.56
2022-12-08T19:37:12.895Z,97833.34
2022-12-08T19:39:59.644Z,97838.63
2022-12-08T19:42:46.163Z,97834.34
2022-12-08T19:45:22.632Z,97837.78
2022-12-08T19:47:50.135Z,97828.31
2022-12-08T19:50:36.650Z,97830.09
2022-12-08T19:53:14.675Z,97831.06
2022-12-08T19:55:44.080Z,97825.75
2022-12-08T19:58:11.948Z,97833.53
2022-12-08T20:00:41.606Z,97829.13
2022-12-08T20:03:14.097Z,97829.41
2022-12-08T20:05:41.870Z,97833.78
2022-12-08T20:08:09.845Z,97824.34
2022-12-08T20:10:41.936Z,97830.47
2022-12-08T20:13:30.207Z,97819.19
2022-12-08T20:15:57.574Z,97820.84
2022-12-08T20:18:25.621Z,97820.03
2022-12-08T20:20:52.694Z,97824.34
2022-12-08T20:23:19.861Z,97827.78
2022-12-08T20:25:48.109Z,97829.53
2022-12-08T20:28:15.577Z,97834.00
2022-12-08T20:30:43.966Z,97834.00
2022-12-08T20:33:14.260Z,97841.84
2022-12-08T20:35:43.309Z,97841.19
2022-12-08T20:38:12.720Z,97843.00
2022-12-08T20:40:44.160Z,97835.28
2022-12-08T20:43:11.340Z,97847.44
2022-12-08T20:45:38.388Z,97844.03
2022-12-08T20:48:06.000Z,97841.53
2022-12-08T20:50:33.045Z,97839.78
2022-12-08T20:53:00.295Z,97833.97
2022-12-08T20:55:27.534Z,97841.09
2022-12-08T20:57:55.165Z,97836.78
2022-12-08T21:00:26.049Z,97841.41
2022-12-08T21:02:56.795Z,97842.31
2022-12-08T21:05:25.431Z,97835.34
2022-12-08T21:07:53.355Z,97840.50
2022-12-08T21:10:21.901Z,97831.97
2022-12-08T21:12:49.819Z,97839.00
2022-12-08T21:15:17.727Z,97839.94
2022-12-08T21:17:46.569Z,97831.34
2022-12-08T21:20:14.547Z,97828.13
2022-12-08T21:22:42.296Z,97827.38
2022-12-08T21:25:09.842Z,97819.59
2022-12-08T21:27:39.119Z,97822.16
2022-12-08T21:30:09.319Z,97821.41
2022-12-08T21:32:40.737Z,97819.75
2022-12-08T21:35:09.295Z,97815.47
2022-12-08T21:37:38.030Z,97816.34
2022-12-08T21:40:07.384Z,97822.56
2022-12-08T21:42:45.235Z,97820.91
2022-12-08T21:45:18.788Z,97826.44
2022-12-08T21:47:48.691Z,97829.22
2022-12-08T21:50:18.527Z,97826.69
2022-12-08T21:52:49.434Z,97827.69
2022-12-08T21:55:20.170Z,97830.38
2022-12-08T21:57:48.495Z,97831.34
2022-12-08T22:00:17.009Z,97832.28
2022-12-08T22:02:45.718Z,97830.56
2022-12-08T22:05:13.461Z,97827.97
2022-12-08T22:07:42.504Z,97828.88
2022-12-08T22:10:11.772Z,97831.50
2022-12-08T22:12:40.404Z,97836.09
2022-12-08T22:15:11.068Z,97836.19
2022-12-08T22:17:41.691Z,97831.88
2022-12-08T22:20:14.603Z,97830.00
2022-12-08T22:22:42.706Z,97831.72
2022-12-08T22:25:12.145Z,97832.34
2022-12-08T22:27:41.542Z,97834.88
2022-12-08T22:30:10.689Z,97831.47
2022-12-08T22:32:38.636Z,97835.88
2022-12-08T22:35:06.176Z,97833.16
2022-12-08T22:37:33.743Z,97842.78
2022-12-08T22:40:00.657Z,97848.31
2022-12-08T22:42:27.927Z,97848.41
2022-12-08T22:44:54.761Z,97846.75
2022-12-08T22:47:21.966Z,97853.84
2022-12-08T22:49:48.953Z,97851.47
2022-12-08T22:52:16.066Z,97861.00
2022-12-08T22:54:45.949Z,97856.66
2022-12-08T22:57:14.588Z,97865.28
2022-12-08T22:59:52.699Z,97862.66
2022-12-08T23:02:19.774Z,97852.25
2022-12-08T23:04:46.893Z,97857.47
2022-12-08T23:07:14.499Z,97866.31
2022-12-08T23:09:41.572Z,97868.00
2022-12-08T23:12:08.655Z,97861.81
2022-12-08T23:14:35.747Z,97864.41
2022-12-08T23:17:03.213Z,97856.56
2022-12-08T23:19:30.615Z,97859.16
2022-12-08T23:21:57.841Z,97863.53
2022-12-08T23:24:25.014Z,97862.66
2022-12-08T23:26:52.416Z,97859.28
2022-12-08T23:29:19.667Z,97858.34
2022-12-08T23:31:47.554Z,97849.72
2022-12-08T23:34:14.906Z,97850.50
2022-12-08T23:36:42.884Z,97851.38
2022-12-08T23:39:11.844Z,97846.81
2022-12-08T23:41:39.169Z,97840.66
2022-12-08T23:44:06.616Z,97847.53
2022-12-08T23:46:34.000Z,97845.97
2022-12-08T23:49:01.463Z,97844.97
2022-12-08T23:51:28.714Z,97842.34
2022-12-08T23:53:55.771Z,97845.78
2022-12-08T23:56:26.994Z,97850.00
2022-12-08T23:58:58.542Z,97846.38
